Time;durP1;ratioP1;P1;durP2;ratioP2;P2;SDS_P1;SDS_P2;PMS_P1;PMS_P2;Temp;Humidity;BMP_temperature;BMP_pressure;BME280_temperature;BME280_humidity;BME280_pressure;Samples;Min_cycle;Max_cycle;Signal;HPM_P1;HPM_P2
2021/05/22 00:01:32;;;;;;;7.27;2.10;;;10.30;99.90;;;-143.32;95.13;53994.25;6247679;23;20404;-91
2021/05/22 00:03:59;;;;;;;8.00;2.00;;;10.30;99.90;;;-143.32;94.78;54014.44;6248157;23;20894;-88
2021/05/22 00:06:25;;;;;;;7.43;2.07;;;10.40;99.90;;;-143.32;94.71;53998.28;6247926;23;20412;-91
2021/05/22 00:08:53;;;;;;;9.60;2.20;;;10.40;99.90;;;-143.32;94.81;54044.75;6248021;23;20404;-92
2021/05/22 00:11:20;;;;;;;6.30;2.20;;;10.40;99.90;;;-143.32;94.28;54056.88;6248035;23;20942;-91
2021/05/22 00:13:47;;;;;;;6.20;2.00;;;10.30;99.90;;;-143.32;93.96;54018.50;6248323;23;20411;-91
2021/05/22 00:16:13;;;;;;;5.37;1.93;;;10.40;99.90;;;-143.32;93.94;54004.34;6248157;23;20407;-88
2021/05/22 00:18:40;;;;;;;11.23;1.87;;;10.40;99.90;;;-143.32;93.75;54046.78;6247490;23;20404;-92
2021/05/22 00:21:07;;;;;;;6.57;2.20;;;10.50;99.20;;;-143.32;93.86;54012.44;6247244;23;20439;-91
2021/05/22 00:23:34;;;;;;;6.53;1.90;;;10.50;99.90;;;-143.32;93.87;54030.63;6247870;23;20871;-90
2021/05/22 00:26:02;;;;;;;5.27;1.90;;;10.40;99.90;;;-143.32;93.90;54014.44;6247834;23;20457;-91
2021/05/22 00:28:29;;;;;;;14.93;2.50;;;10.40;99.90;;;-143.32;93.88;54048.78;6248742;23;20685;-90
2021/05/22 00:30:56;;;;;;;7.93;2.20;;;10.30;99.90;;;-143.32;94.11;54030.63;6247725;23;20411;-91
2021/05/22 00:33:22;;;;;;;7.87;2.27;;;10.30;99.90;;;-143.32;94.10;54075.06;6247644;23;20732;-90
2021/05/22 00:35:50;;;;;;;7.93;3.00;;;10.30;99.90;;;-143.32;93.77;54030.63;6247669;23;20879;-92
2021/05/22 00:38:17;;;;;;;6.50;2.80;;;10.30;99.90;;;-143.32;93.38;54077.06;6247621;23;20415;-91
2021/05/22 00:40:44;;;;;;;6.40;2.63;;;10.30;83.20;;;-143.32;93.16;54077.06;6247428;23;20965;-91
2021/05/22 00:43:11;;;;;;;8.63;3.00;;;10.30;31.60;;;-143.32;92.76;54042.72;6247254;23;20401;-89
2021/05/22 00:45:38;;;;;;;7.37;2.80;;;10.30;1.00;;;-143.32;92.22;54056.88;6247165;23;20782;-92
2021/05/22 00:48:06;;;;;;;5.07;1.93;;;10.40;1.00;;;-143.32;91.52;54048.78;6247745;23;20396;-91
2021/05/22 00:50:36;;;;;;;9.87;2.90;;;10.40;1.00;;;-143.32;91.21;54091.22;6247870;23;20412;-90
2021/05/22 00:53:05;;;;;;;5.40;2.00;;;10.40;1.00;;;-143.32;91.25;54099.28;6248840;23;20407;-90
2021/05/22 00:55:33;;;;;;;4.93;2.00;;;10.40;1.00;;;-143.32;91.07;54091.22;6247119;23;20901;-91
2021/05/22 00:57:59;;;;;;;5.30;1.97;;;10.40;1.00;;;-143.32;91.05;54085.16;6246857;23;20964;-89
2021/05/22 01:00:43;;;;;;;8.23;2.00;;;10.30;1.00;;;-143.32;90.84;54111.41;6247321;23;20439;-91
2021/05/22 01:03:17;;;;;;;5.80;2.20;;;10.30;1.00;;;-143.32;90.42;54149.78;6247163;23;20384;-92
2021/05/22 01:05:44;;;;;;;12.00;2.53;;;10.30;99.90;;;-143.32;90.29;54121.50;6248306;23;20712;-90
2021/05/22 01:08:17;;;;;;;8.37;2.57;;;10.30;99.90;;;-143.32;90.54;54109.41;6247796;23;20418;-90
2021/05/22 01:10:46;;;;;;;13.20;2.70;;;10.20;99.90;;;-143.32;90.42;54105.34;6248308;23;20475;-90
2021/05/22 01:13:13;;;;;;;7.17;2.70;;;10.20;99.90;;;-143.32;90.51;54147.78;6246962;23;20422;-89
2021/05/22 01:15:44;;;;;;;4.83;2.10;;;10.10;99.90;;;-143.32;89.83;54113.44;6246946;23;20712;-89
2021/05/22 01:18:12;;;;;;;14.80;2.83;;;10.10;99.90;;;-143.32;89.96;54129.59;6248008;23;20661;-91
2021/05/22 01:20:41;;;;;;;11.20;2.67;;;10.10;99.90;;;-143.32;90.22;54145.75;6246725;23;20440;-89
2021/05/22 01:23:20;;;;;;;6.80;2.20;;;10.10;99.90;;;-143.32;90.00;54151.81;6247076;23;20408;-88
2021/05/22 01:25:50;;;;;;;11.83;2.80;;;10.10;99.90;;;-143.32;89.72;54149.78;6247870;23;20380;-90
2021/05/22 01:28:17;;;;;;;9.63;2.70;;;10.10;99.90;;;-143.32;90.40;54182.13;6247717;23;20416;-89
2021/05/22 01:30:45;;;;;;;9.47;2.03;;;10.10;99.90;;;-143.32;90.20;54145.75;6246814;23;20402;-91
2021/05/22 01:33:12;;;;;;;5.63;1.90;;;10.00;99.90;;;-143.32;90.22;54149.78;6247595;23;20410;-90
2021/05/22 01:35:41;;;;;;;9.60;2.07;;;10.00;99.90;;;-143.32;90.27;54163.94;6247042;23;20403;-89
2021/05/22 01:40:43;;;;;;;5.80;2.00;;;10.00;99.90;;;-143.32;90.54;54153.84;6251675;22;20803;-87
2021/05/22 01:43:35;;;;;;;11.93;2.00;;;10.00;99.90;;;-143.32;90.12;54174.03;6246983;23;20400;-91
2021/05/22 01:46:05;;;;;;;5.00;1.93;;;9.90;99.90;;;-143.32;90.38;54172.03;6232124;23;20454;-91
2021/05/22 01:48:35;;;;;;;13.40;2.23;;;9.90;99.90;;;-143.32;89.93;54208.38;6248898;23;20483;-90
2021/05/22 01:51:10;;;;;;;4.37;1.70;;;9.90;99.90;;;-143.32;89.88;54194.25;6248723;23;20754;-91
2021/05/22 01:53:41;;;;;;;5.13;1.70;;;9.90;99.90;;;-143.32;90.49;54182.13;6247550;23;20388;-88
2021/05/22 01:56:12;;;;;;;6.43;1.63;;;9.90;99.90;;;-143.32;90.03;54174.03;6248269;23;20414;-88
2021/05/22 01:58:45;;;;;;;6.73;1.60;;;9.90;99.90;;;-143.32;90.43;54182.13;6247423;23;20400;-89
2021/05/22 02:01:12;;;;;;;6.33;1.70;;;9.90;99.90;;;-143.32;90.58;54182.13;6248308;23;20806;-90
2021/05/22 02:03:46;;;;;;;5.33;1.60;;;9.90;1.00;;;-143.32;90.86;54176.06;6248050;23;20450;-88
2021/05/22 02:06:21;;;;;;;9.03;2.00;;;9.80;1.00;;;-143.32;91.00;54180.09;6247443;23;20404;-89
2021/05/22 02:08:53;;;;;;;8.50;1.77;;;9.80;1.00;;;-143.32;91.46;54180.09;6248098;23;20372;-88
2021/05/22 02:11:25;;;;;;;2.00;1.40;;;9.90;1.00;;;-143.32;91.99;54151.81;6247792;23;20808;-90
2021/05/22 02:13:55;;;;;;;5.97;2.30;;;9.70;1.00;;;-143.32;92.63;54139.69;6246699;23;20388;-91
2021/05/22 02:16:28;;;;;;;4.00;2.00;;;9.70;1.00;;;-143.32;92.61;54186.16;6247022;23;20392;-90
2021/05/22 02:18:57;;;;;;;5.00;1.80;;;9.60;1.00;;;-143.32;92.65;54149.78;6246986;23;20426;-92
2021/05/22 02:21:30;;;;;;;6.73;1.80;;;9.60;1.00;;;-143.32;92.73;54157.88;6246257;23;20451;-89
2021/05/22 02:24:00;;;;;;;3.13;1.50;;;9.70;1.00;;;-143.32;92.99;54176.06;6247046;23;20438;-89
2021/05/22 02:26:30;;;;;;;2.73;1.60;;;9.70;17.90;;;-143.32;92.65;54155.84;6246766;23;20453;-90
2021/05/22 02:29:02;;;;;;;2.13;1.73;;;9.70;1.00;;;-143.32;92.53;54155.84;6246769;23;20389;-89
2021/05/22 02:31:32;;;;;;;3.87;1.47;;;9.70;1.00;;;-143.32;92.52;54123.53;6246305;23;20407;-89
2021/05/22 02:34:02;;;;;;;5.77;1.93;;;9.70;1.00;;;-143.32;92.35;54155.84;6246632;23;20450;-90
2021/05/22 02:36:32;;;;;;;8.50;2.00;;;9.70;1.00;;;-143.32;92.11;54161.91;6247364;23;20720;-88
2021/05/22 02:39:04;;;;;;;8.63;1.93;;;9.80;1.00;;;-143.32;91.88;54170.00;6247906;23;20474;-90
2021/05/22 03:43:37;;;;;;;7.30;1.80;;;10.30;99.90;;;-143.32;89.68;54165.97;6280137;22;20448;-91
2021/05/22 03:46:51;;;;;;;5.47;1.70;;;10.30;99.90;;;-143.32;89.26;54147.78;6229814;23;20479;-93
2021/05/22 03:49:22;;;;;;;6.97;2.20;;;10.30;99.90;;;-143.32;89.14;54141.72;6219471;23;20717;-93
2021/05/22 03:52:07;;;;;;;3.37;1.47;;;10.30;99.90;;;-143.32;89.28;54155.84;6222997;23;20783;-92
2021/05/22 03:54:52;;;;;;;3.40;1.60;;;10.30;99.90;;;-143.32;89.43;54149.78;6233396;23;20412;-90
2021/05/22 04:02:00;;;;;;;6.00;1.63;;;10.40;99.90;;;-143.32;88.91;54176.06;6142089;23;20523;-90
2021/05/22 04:09:07;;;;;;;8.63;2.63;;;10.40;99.90;;;-143.32;88.82;54123.53;6238466;23;20413;-92
2021/05/22 04:12:13;;;;;;;8.50;2.17;;;10.50;99.90;;;-143.32;88.54;54176.06;6237739;23;20393;-93
2021/05/22 04:14:52;;;;;;;3.50;1.90;;;10.50;99.90;;;-143.32;88.83;54161.91;6239008;23;20404;-92
2021/05/22 04:17:41;;;;;;;;;;;;;;;;;;;;;
2021/05/22 04:20:30;;;;;;;5.40;2.30;;;10.50;99.90;;;-143.32;88.91;54145.75;6238672;23;20433;-91
2021/05/22 04:23:11;;;;;;;6.43;2.30;;;10.50;99.90;;;-143.32;88.94;54161.91;6237325;23;20390;-91
2021/05/22 04:26:29;;;;;;;6.83;2.00;;;10.50;99.90;;;-143.32;89.24;54155.84;6238840;23;20393;-93
2021/05/22 04:29:57;;;;;;;9.10;1.70;;;10.50;99.90;;;-143.32;89.30;54172.03;6238622;23;20396;-92
2021/05/22 04:36:59;;;;;;;10.33;2.00;;;10.50;99.90;;;-143.32;89.08;54157.88;6238569;23;20449;-92
2021/05/22 04:43:15;;;;;;;6.00;1.80;;;10.70;99.90;;;-143.32;89.25;54167.97;6237536;23;20777;-92
2021/05/22 04:49:52;;;;;;;9.40;2.07;;;10.50;99.90;;;-143.32;89.33;54143.75;6236916;23;20397;-92
2021/05/22 04:56:11;;;;;;;8.93;1.73;;;10.60;99.90;;;-143.32;89.58;54145.75;6205412;23;20502;-91
2021/05/22 05:02:27;;;;;;;12.53;2.90;;;10.60;99.90;;;-143.32;89.84;54153.84;6116389;23;20407;-93
2021/05/22 05:05:29;;;;;;;6.67;2.23;;;10.60;99.90;;;-143.32;90.05;54137.69;6229324;23;20900;-92
2021/05/22 05:08:10;;;;;;;8.20;2.00;;;10.60;99.90;;;-143.32;89.79;54113.44;6226534;23;20427;-93
2021/05/22 05:11:04;;;;;;;6.70;1.93;;;10.70;99.90;;;-143.32;90.11;54113.44;6237650;23;20428;-92
2021/05/22 05:16:45;;;;;;;10.53;2.30;;;10.80;99.90;;;-143.32;89.98;54107.38;6221931;23;20420;-92
2021/05/22 05:19:37;;;;;;;7.00;1.90;;;11.00;99.90;;;-143.32;89.46;54103.34;6229008;23;20882;-90
2021/05/22 05:22:44;;;;;;;8.13;2.20;;;10.80;99.90;;;-143.32;89.47;54121.50;6226433;23;20417;-93
2021/05/22 05:25:51;;;;;;;9.53;2.10;;;10.70;99.90;;;-143.32;89.36;54073.03;6221014;23;20775;-93
2021/05/22 05:28:25;;;;;;;7.80;1.80;;;10.80;99.90;;;-143.32;89.37;54115.47;6219846;23;20785;-93
2021/05/22 05:31:10;;;;;;;7.93;1.87;;;10.90;99.90;;;-143.32;89.43;54139.69;6221975;23;20860;-92
2021/05/22 05:33:44;;;;;;;8.00;2.20;;;10.90;99.90;;;-143.32;89.44;54093.22;6232414;23;20856;-92
2021/05/22 05:39:22;;;;;;;8.43;2.27;;;11.00;99.90;;;-143.32;89.10;54125.56;6237984;23;20409;-91
2021/05/22 05:44:44;;;;;;;7.07;2.27;;;10.90;99.90;;;-143.32;89.16;54115.47;6217689;23;20405;-92
2021/05/22 05:47:44;;;;;;;10.97;2.83;;;11.00;99.90;;;-143.32;89.17;54097.28;6240789;23;20432;-91
2021/05/22 05:50:25;;;;;;;5.63;1.87;;;11.00;99.90;;;-143.32;88.88;54143.75;6239401;23;20412;-92
2021/05/22 05:52:59;;;;;;;12.37;2.43;;;11.00;99.90;;;-143.32;88.62;54093.22;6239355;23;20409;-91
2021/05/22 06:30:23;;;;;;;20.90;2.40;;;10.80;1.00;;;-143.32;93.36;54095.25;6214936;23;20539;-92
2021/05/22 06:33:00;;;;;;;12.80;3.80;;;10.70;59.40;;;-143.32;93.28;54079.09;6252362;22;20403;-91
2021/05/22 07:07:17;;;;;;;9.37;2.17;;;10.70;99.90;;;-143.32;93.41;54083.13;6267697;22;20550;-88
2021/05/22 07:09:44;;;;;;;13.80;2.10;;;10.70;17.00;;;-143.32;92.84;54066.97;6248720;23;20428;-91
2021/05/22 07:12:11;;;;;;;5.70;2.13;;;10.80;1.00;;;-143.32;92.54;54046.78;6256413;23;20878;-95
2021/05/22 07:14:38;;;;;;;9.17;2.00;;;10.90;1.00;;;-143.32;92.52;54079.09;6258031;23;20388;-92
2021/05/22 07:17:05;;;;;;;8.07;2.30;;;10.80;1.00;;;-143.32;92.13;54105.34;6251824;23;20427;-92
2021/05/22 07:19:41;;;;;;;17.63;2.53;;;10.90;1.00;;;-143.32;91.74;54079.09;6253078;23;20426;-91
2021/05/22 07:22:11;;;;;;;9.30;2.30;;;10.90;1.00;;;-143.32;91.74;54075.06;6254811;23;20411;-92
2021/05/22 07:24:40;;;;;;;9.47;2.03;;;10.90;1.00;;;-143.32;92.00;54085.16;6255893;23;20909;-95
2021/05/22 07:30:48;;;;;;;9.80;1.97;;;11.00;1.00;;;-143.32;93.00;54069.00;6251243;23;20727;-89
2021/05/22 07:33:15;;;;;;;8.50;1.87;;;10.90;1.00;;;-143.32;92.50;54058.91;6248099;23;20768;-91
2021/05/22 07:39:43;;;;;;;9.13;1.97;;;10.90;43.60;;;-143.32;96.32;54044.75;6248423;23;20395;-90
2021/05/22 07:53:26;;;;;;;6.40;2.03;;;10.50;99.90;;;-143.32;98.44;54020.50;6114206;23;20473;-92
2021/05/22 07:56:27;;;;;;;7.73;1.93;;;10.50;99.90;;;-143.32;99.20;53978.09;6098538;23;20915;-92
2021/05/22 07:58:54;;;;;;;10.10;2.40;;;10.50;99.90;;;-143.32;99.98;53963.94;6121284;23;20430;-90
2021/05/22 08:05:42;;;;;;;10.50;3.10;;;10.40;99.90;;;-143.32;100.00;53937.69;6246947;22;20649;-95
2021/05/22 08:08:09;;;;;;;4.80;2.53;;;10.50;3.00;;;-143.32;100.00;53941.72;6249630;22;20946;-89
2021/05/22 08:10:35;;;;;;;7.80;2.97;;;10.20;1.00;;;-143.32;100.00;53915.47;6248065;23;20411;-88
2021/05/22 08:13:05;;;;;;;5.03;2.20;;;10.20;99.90;;;-143.32;100.00;53927.59;6249708;23;20404;-92
2021/05/22 08:16:20;;;;;;;4.77;2.07;;;10.30;1.00;;;-143.32;100.00;53919.50;6252976;23;20416;-90
2021/05/22 08:36:11;;;;;;;6.43;2.40;;;10.80;1.00;;;-143.32;100.00;53879.09;6239974;23;20431;-91
2021/05/22 08:43:18;;;;;;;7.67;2.00;;;10.80;99.90;;;-143.32;100.00;53864.97;6166262;23;20743;-91
2021/05/22 08:45:53;;;;;;;10.40;2.17;;;10.80;31.90;;;-143.32;100.00;53844.75;6193343;23;20435;-90
2021/05/22 08:52:59;;;;;;;4.93;2.30;;;10.90;44.50;;;-143.32;99.56;53901.31;6256237;23;20396;-91
2021/05/22 08:59:45;;;;;;;9.93;2.43;;;10.90;99.90;;;-143.32;100.00;53852.84;6256667;23;20447;-91
2021/05/22 09:02:22;;;;;;;9.80;2.03;;;11.00;1.00;;;-143.32;100.00;53864.97;6252890;23;20483;-91
2021/05/22 09:05:26;;;;;;;7.20;2.23;;;11.00;1.00;;;-143.32;100.00;53840.72;6266110;23;20419;-92
2021/05/22 09:07:58;;;;;;;8.17;3.13;;;11.00;1.00;;;-143.32;100.00;53858.91;6264847;23;20392;-92
2021/05/22 09:10:38;;;;;;;7.63;2.60;;;11.00;1.00;;;-143.32;100.00;53818.50;6257526;23;20454;-91
2021/05/22 09:13:14;;;;;;;9.27;2.30;;;11.00;93.80;;;-143.32;100.00;53824.56;6256089;23;20403;-91
2021/05/22 09:16:25;;;;;;;12.93;2.73;;;11.00;1.00;;;-143.32;100.00;53830.63;6260578;23;20847;-91
2021/05/22 09:19:08;;;;;;;12.63;2.97;;;10.90;1.00;;;-143.32;100.00;53836.69;6219014;23;20422;-92
2021/05/22 09:25:37;;;;;;;12.73;4.23;;;11.10;1.00;;;-143.32;100.00;53814.47;6267754;22;20391;-93
2021/05/22 09:31:48;;;;;;;11.50;2.60;;;11.00;1.00;;;-143.32;100.00;53810.44;6235783;22;20534;-89
2021/05/22 09:34:55;;;;;;;10.60;2.73;;;11.10;37.00;;;-143.32;100.00;53772.03;6258703;23;20827;-91
2021/05/22 09:41:00;;;;;;;7.30;2.50;;;11.20;40.20;;;-143.32;100.00;53834.66;6264930;23;20455;-93
2021/05/22 09:43:48;;;;;;;9.20;3.33;;;11.10;1.00;;;-143.32;100.00;53792.25;6264666;23;20400;-92
2021/05/22 09:50:07;;;;;;;10.37;3.07;;;11.00;99.90;;;-143.32;100.00;53772.03;6248734;23;20391;-91
2021/05/22 09:52:41;;;;;;;10.90;2.87;;;10.90;99.90;;;-143.32;100.00;53757.91;6248290;23;20422;-91
2021/05/22 09:55:19;;;;;;;13.70;3.30;;;10.90;1.00;;;-143.32;100.00;53774.06;6247176;23;20404;-90
2021/05/22 09:58:16;;;;;;;8.10;2.50;;;10.80;99.90;;;-143.32;100.00;53770.03;6246001;23;20431;-91
2021/05/22 10:31:40;;;;;;;12.63;2.77;;;11.20;99.90;;;-143.32;100.00;53673.06;6249635;22;20454;-91
2021/05/22 10:34:16;;;;;;;8.67;2.10;;;11.20;1.00;;;-143.32;100.00;53685.19;6246111;23;20395;-87
2021/05/22 10:36:52;;;;;;;5.97;2.20;;;11.20;99.90;;;-143.32;100.00;53717.50;6247250;23;20415;-90
2021/05/22 10:42:55;;;;;;;9.90;2.53;;;11.20;99.90;;;-143.32;100.00;53640.75;6134828;23;20422;-89
2021/05/22 10:49:58;;;;;;;11.73;2.57;;;11.20;99.90;;;-143.32;100.00;53648.84;6153502;23;20418;-88
2021/05/22 10:52:50;;;;;;;5.23;1.97;;;11.20;99.90;;;-143.32;100.00;53665.00;6158292;23;20542;-93
2021/05/22 10:55:16;;;;;;;7.80;2.40;;;11.20;99.90;;;-143.32;100.00;53660.94;6151589;23;20411;-90
2021/05/22 10:58:11;;;;;;;7.83;3.60;;;11.10;99.90;;;-143.32;100.00;53622.56;6159642;23;20414;-91
2021/05/22 11:00:45;;;;;;;10.10;2.90;;;11.10;69.10;;;-143.32;100.00;53602.38;6226178;23;20474;-90
2021/05/22 11:03:13;;;;;;;7.73;2.70;;;11.00;1.00;;;-143.32;100.00;53598.34;6248078;23;20860;-92
2021/05/22 11:05:42;;;;;;;8.50;2.70;;;11.00;1.00;;;-143.32;100.00;53596.31;6250004;23;20462;-91
2021/05/22 11:08:31;;;;;;;13.57;3.60;;;10.90;99.90;;;-143.32;100.00;53521.59;6254035;23;20396;-92
2021/05/22 11:11:01;;;;;;;13.00;3.60;;;10.90;99.90;;;-143.32;100.00;53553.91;6248692;23;20686;-93
2021/05/22 11:13:46;;;;;;;7.33;2.50;;;11.00;99.90;;;-143.32;100.00;53525.63;6249879;23;20454;-90
2021/05/22 11:16:34;;;;;;;10.50;3.00;;;11.00;1.00;;;-143.32;100.00;53493.31;6250157;23;20389;-91
2021/05/22 11:23:00;;;;;;;5.73;2.60;;;10.90;1.00;;;-143.32;100.00;53372.13;6251043;23;20368;-89
2021/05/22 11:25:50;;;;;;;11.40;3.70;;;11.00;99.90;;;-143.32;100.00;53273.16;6247465;23;20450;-88
2021/05/22 11:28:26;;;;;;;7.43;3.60;;;11.00;99.90;;;-143.32;100.00;53295.38;6246217;23;20409;-86
2021/05/22 11:30:56;;;;;;;13.30;3.00;;;11.00;99.90;;;-143.32;100.00;53309.50;6247662;23;20439;-91
2021/05/22 11:33:49;;;;;;;8.13;3.70;;;11.00;25.90;;;-143.32;100.00;53311.53;6252563;23;20465;-93
2021/05/22 11:36:17;;;;;;;13.40;4.23;;;10.90;86.00;;;-143.32;100.00;53252.97;6255654;23;20414;-90
2021/05/22 11:42:44;;;;;;;11.20;4.70;;;10.90;99.90;;;-143.32;100.00;53174.19;6254645;23;20380;-92
2021/05/22 11:45:11;;;;;;;9.47;3.70;;;10.80;99.90;;;-143.32;100.00;53147.94;6250861;23;20419;-92
2021/05/22 11:47:38;;;;;;;10.83;3.77;;;10.80;99.90;;;-143.32;100.00;53053.03;6252234;23;20410;-91
2021/05/22 11:50:24;;;;;;;12.80;4.57;;;10.80;99.90;;;-143.32;100.00;52972.25;6252978;23;20479;-92
2021/05/22 11:52:52;;;;;;;15.07;4.60;;;10.80;99.90;;;-143.32;100.00;52946.00;6252986;23;20418;-92
2021/05/22 11:55:21;;;;;;;16.77;4.60;;;10.90;99.90;;;-143.32;100.00;52941.94;6251668;23;20392;-92
2021/05/22 12:00:40;;;;;;;9.87;4.73;;;10.90;99.90;;;-143.32;100.00;52802.63;5110659;27;1350006;-90
2021/05/22 12:03:07;;;;;;;9.20;4.90;;;10.90;99.90;;;-143.32;100.00;52754.16;5133054;28;20240;-89
2021/05/22 12:05:44;;;;;;;17.33;5.00;;;10.90;99.90;;;-143.32;100.00;52727.91;5132264;28;20823;-85
2021/05/22 12:08:16;;;;;;;11.60;5.20;;;10.90;99.90;;;-143.32;100.00;52647.13;5131856;28;20423;-90
2021/05/22 12:10:43;;;;;;;12.67;4.07;;;10.90;99.90;;;-143.32;100.00;52635.00;5132179;28;20439;-89
2021/05/22 12:13:10;;;;;;;11.90;3.97;;;10.90;99.90;;;-143.32;100.00;52695.59;5131743;28;20444;-89
2021/05/22 12:15:38;;;;;;;17.03;4.77;;;10.80;99.90;;;-143.32;100.00;52681.47;5132072;28;20501;-89
2021/05/22 12:18:07;;;;;;;14.17;5.80;;;11.00;99.90;;;-143.32;100.00;52635.00;5131180;28;20479;-90
2021/05/22 12:20:49;;;;;;;11.90;4.40;;;10.80;99.90;;;-143.32;100.00;52538.09;5131288;28;20521;-91
2021/05/22 12:23:27;;;;;;;8.77;4.37;;;10.70;99.90;;;-143.32;100.00;52525.97;5131453;28;20859;-89
2021/05/22 12:25:55;;;;;;;20.30;4.50;;;10.90;99.90;;;-143.32;100.00;52521.94;5131765;28;21000;-91
2021/05/22 12:28:23;;;;;;;17.67;4.67;;;10.90;99.90;;;-143.32;100.00;52568.38;5131511;28;20808;-89
2021/05/22 12:30:52;;;;;;;9.47;3.30;;;10.90;99.90;;;-143.32;100.00;52528.00;5131439;28;20440;-89
2021/05/22 12:33:22;;;;;;;12.07;3.83;;;10.90;99.90;;;-143.32;100.00;52497.69;5131602;28;20425;-90
2021/05/22 12:36:01;;;;;;;18.17;4.33;;;11.00;99.90;;;-143.32;100.00;52473.47;5132512;28;20440;-90
2021/05/22 12:38:39;;;;;;;12.10;4.37;;;10.90;99.90;;;-143.32;100.00;52406.84;5131515;28;20459;-91
2021/05/22 12:41:06;;;;;;;14.80;4.97;;;10.80;99.90;;;-143.32;100.00;52320.03;5131341;28;20450;-90
2021/05/22 12:43:44;;;;;;;11.80;4.50;;;10.80;99.90;;;-143.32;100.00;52184.75;5130850;28;20505;-91
2021/05/22 12:46:24;;;;;;;12.30;4.60;;;10.80;99.90;;;-143.32;100.00;52041.41;5131309;28;20444;-91
2021/05/22 12:49:06;;;;;;;16.80;5.13;;;10.80;99.90;;;-143.32;100.00;51986.88;5130884;28;20444;-91
2021/05/22 12:51:33;;;;;;;10.10;4.40;;;10.80;99.90;;;-143.32;100.00;51835.47;5130817;28;20426;-88
2021/05/22 12:54:29;;;;;;;11.30;4.17;;;10.90;99.90;;;-143.32;100.00;51825.38;5130365;28;20439;-89
2021/05/22 12:57:17;;;;;;;5.93;3.80;;;10.90;99.90;;;-143.32;100.00;51883.94;5130840;28;20527;-88
2021/05/22 12:59:45;;;;;;;16.00;3.87;;;10.90;99.90;;;-143.32;100.00;51938.44;5130640;28;20571;-87
2021/05/22 13:02:22;;;;;;;10.00;3.70;;;10.90;99.90;;;-143.32;100.00;52003.03;5131385;28;20447;-90
2021/05/22 13:04:52;;;;;;;10.50;4.30;;;10.90;99.90;;;-143.32;100.00;51966.69;5130835;28;20487;-89
2021/05/22 13:07:26;;;;;;;10.50;4.10;;;10.90;99.90;;;-143.32;100.00;51988.91;5130736;28;20903;-89
2021/05/22 13:10:16;;;;;;;5.60;3.10;;;10.90;99.90;;;-143.32;100.00;51928.34;5129379;28;20427;-91
2021/05/22 13:13:16;;;;;;;;;;;;;;;;;;;;;
2021/05/22 13:15:46;;;;;;;10.37;3.30;;;10.90;99.90;;;-143.32;100.00;51994.97;5102096;28;20443;-90
2021/05/22 13:18:15;;;;;;;10.20;3.20;;;10.90;99.90;;;-143.32;100.00;52122.16;5117005;28;20539;-89
2021/05/22 13:20:45;;;;;;;7.67;3.03;;;10.80;99.90;;;-143.32;100.00;52089.84;5116309;28;21043;-89
2021/05/22 13:23:19;;;;;;;9.43;3.20;;;10.60;99.90;;;-143.32;100.00;52089.84;5116567;28;20449;-90
2021/05/22 13:25:48;;;;;;;5.13;2.77;;;10.70;99.90;;;-143.32;100.00;52013.13;5116740;28;20433;-88
2021/05/22 13:28:20;;;;;;;15.60;3.77;;;10.70;99.90;;;-143.32;100.00;51996.97;5116753;28;20802;-88
2021/05/22 13:30:51;;;;;;;9.93;3.40;;;10.70;99.90;;;-143.32;100.00;51906.13;5116623;28;20474;-90
2021/05/22 13:33:34;;;;;;;14.30;3.97;;;10.80;99.90;;;-143.32;100.00;51853.66;5116385;28;20464;-90
2021/05/22 13:36:02;;;;;;;10.87;3.90;;;10.80;99.90;;;-143.32;100.00;51835.47;5116622;28;20772;-89
2021/05/22 13:38:34;;;;;;;7.90;3.93;;;10.80;99.90;;;-143.32;100.00;51831.44;5117521;28;20465;-92
2021/05/22 13:41:02;;;;;;;16.17;4.80;;;10.80;99.90;;;-143.32;100.00;51774.91;5120506;28;20716;-92
2021/05/22 13:43:28;;;;;;;11.83;4.90;;;10.80;99.90;;;-143.32;100.00;51712.34;5119627;28;20514;-91
2021/05/22 13:45:56;;;;;;;13.67;5.10;;;10.80;99.90;;;-143.32;100.00;51643.69;5118544;28;20950;-94
2021/05/22 13:48:25;;;;;;;8.90;4.50;;;10.90;99.90;;;-143.32;100.00;51613.41;5121225;28;20433;-93
2021/05/22 13:50:52;;;;;;;15.67;5.13;;;11.00;99.90;;;-143.32;100.00;51599.28;5119760;28;20438;-89
2021/05/22 13:53:22;;;;;;;12.87;4.93;;;11.10;99.90;;;-143.32;100.00;51528.63;5115918;28;20437;-89
2021/05/22 13:55:50;;;;;;;12.27;5.00;;;11.00;99.90;;;-143.32;100.00;51512.50;5116216;28;20431;-90
2021/05/22 13:58:16;;;;;;;10.03;4.80;;;11.10;99.90;;;-143.32;100.00;51518.53;5116058;28;20460;-89
2021/05/22 14:01:29;;;;;;;7.80;4.20;;;11.00;99.90;;;-143.32;100.00;51526.63;5116394;28;20512;-89
2021/05/22 14:03:56;;;;;;;13.43;4.50;;;11.00;99.90;;;-143.32;100.00;51512.50;5116318;28;20439;-92
2021/05/22 14:06:23;;;;;;;10.57;3.90;;;11.00;99.90;;;-143.32;100.00;51530.66;5116585;28;20453;-91
2021/05/22 14:24:23;;;;;;;16.70;5.80;;;11.20;99.90;;;-143.32;100.00;51340.91;5054947;28;20445;-92
2021/05/22 18:41:48;;;;;;;8.10;7.10;;;10.90;99.90;;;-143.32;100.00;50695.06;5386426;23;20837;-92
2021/05/22 18:44:43;;;;;;;9.23;7.17;;;11.00;99.90;;;-143.32;100.00;50682.94;4948546;29;20466;-93
2021/05/22 18:48:05;;;;;;;9.13;6.90;;;11.00;99.90;;;-143.32;100.00;50709.19;4939209;29;21001;-92
2021/05/22 19:44:49;;;;;;;4.40;3.20;;;10.80;99.90;;;-143.32;100.00;50816.16;4946685;29;20413;-93
2021/05/22 19:47:15;;;;;;;11.47;5.73;;;10.90;99.90;;;-143.32;100.00;50767.72;4948780;29;20454;-93
2021/05/22 19:49:42;;;;;;;5.13;3.90;;;10.90;99.90;;;-143.32;100.00;50735.41;4937881;29;20947;-86
2021/05/22 19:52:09;;;;;;;11.03;4.50;;;10.90;99.90;;;-143.32;100.00;50725.31;4937289;29;20457;-86
2021/05/22 19:54:36;;;;;;;8.33;5.30;;;10.80;99.90;;;-143.32;100.00;50719.28;4936724;29;20468;-87
2021/05/22 19:57:05;;;;;;;7.40;4.60;;;10.80;99.90;;;-143.32;100.00;50741.47;4936964;29;20568;-87
2021/05/22 19:59:31;;;;;;;5.87;4.03;;;10.70;99.90;;;-143.32;100.00;50725.31;4936003;29;21004;-86
2021/05/22 20:01:59;;;;;;;6.40;3.63;;;10.60;99.90;;;-143.32;100.00;50672.84;4937197;29;20788;-87
2021/05/22 20:04:25;;;;;;;4.30;3.50;;;10.50;99.90;;;-143.32;100.00;50691.03;4936006;29;20454;-85
2021/05/22 20:06:52;;;;;;;5.50;3.20;;;10.40;99.90;;;-143.32;100.00;50592.13;4936234;29;20945;-87
2021/05/22 20:09:22;;;;;;;3.80;3.40;;;10.30;99.90;;;-143.32;100.00;50519.47;4936265;29;20446;-87
2021/05/22 20:11:49;;;;;;;5.13;4.03;;;10.20;99.90;;;-143.32;100.00;50408.50;4936293;29;20580;-87
2021/05/22 20:14:15;;;;;;;5.40;4.30;;;10.20;99.90;;;-143.32;100.00;50210.75;4936259;29;20787;-87
2021/05/22 20:16:42;;;;;;;4.33;3.93;;;10.20;99.90;;;-143.32;100.00;49986.78;4935910;29;20458;-86
2021/05/22 20:19:10;;;;;;;5.83;4.60;;;10.20;99.90;;;-143.32;100.00;49722.47;4935993;29;20557;-88
2021/05/22 20:21:36;;;;;;;8.23;5.87;;;10.20;99.90;;;-143.32;100.00;49391.59;4938623;29;20959;-86
2021/05/22 20:24:04;;;;;;;8.93;6.87;;;10.10;99.90;;;-143.32;100.00;49117.25;4939708;29;20461;-86
2021/05/22 20:26:31;;;;;;;8.20;6.30;;;10.20;99.90;;;-143.32;100.00;48849.00;4939938;29;20465;-86
2021/05/22 20:28:58;;;;;;;8.60;6.47;;;10.20;99.90;;;-143.32;100.00;48639.22;4939226;29;20527;-88
2021/05/22 20:31:25;;;;;;;10.03;6.70;;;10.20;99.90;;;-143.32;100.00;48449.66;4940457;29;20438;-88
2021/05/22 20:33:53;;;;;;;13.70;6.73;;;10.10;99.90;;;-143.32;100.00;48354.84;4940050;29;20453;-88
2021/05/22 20:36:21;;;;;;;10.30;7.07;;;10.10;99.90;;;-143.32;100.00;48122.94;4939848;29;20458;-88
2021/05/22 20:38:48;;;;;;;12.50;7.33;;;10.10;99.90;;;-143.32;100.00;47862.81;4939671;29;20464;-88
2021/05/22 20:41:15;;;;;;;12.57;8.70;;;10.10;99.90;;;-143.32;100.00;47455.53;4939761;29;20446;-90
2021/05/22 20:43:42;;;;;;;16.27;8.60;;;10.10;99.90;;;-143.32;100.00;47336.56;4939480;29;20553;-88
2021/05/22 20:46:08;;;;;;;10.80;8.27;;;10.10;99.90;;;-143.32;100.00;47169.25;4939486;29;20466;-88
2021/05/22 20:48:35;;;;;;;13.87;9.10;;;10.10;99.90;;;-143.32;100.00;47137.00;4940304;29;20512;-89